• Join FlightAware (Why Join?)
  • Login
  • US Flag 
08:43AM EDT


 

Airport Tracker/Info


-or-


 

Live Flight TrackerFlight Track Log ✈ VNR160 ✈ 18-Apr-2013 ✈ KADS - KSGR

Flight Track Log - Related Links

Times and Time Zones

All times are in EDT time to prevent confusion due to time zone crossing. See the VNR160 flight status page for this flight to view local times or setup timezone preferences in your user account.

Time Position Orientation Groundspeed Altitude Reporting Facility
EDT Latitude Longitude Course Direction KTS MPH feet Rate Location/Type
12:16PM 33.0000 -96.8500 40° Northeast 137 158 2,000  Level Dallas / Fort Worth TRACON
12:17PM 33.0333 -96.8167 40° Northeast 194 223 4,300 2,220 Climbing Dallas / Fort Worth TRACON
12:18PM 33.0000 -96.7833 140° Southeast 212 244 6,500 1,560 Climbing Dallas / Fort Worth TRACON
12:19PM 32.9333 -96.7833 180° South 249 287 7,500 1,500 Climbing Dallas / Fort Worth TRACON
12:20PM 32.8667 -96.7833 180° South 210 242 9,600 2,040 Climbing Dallas / Fort Worth TRACON
12:21PM 32.8167 -96.7833 180° South 198 228 11,600 1,200 Climbing Dallas / Fort Worth TRACON
12:22PM 32.7500 -96.8000 192° South 221 254 12,000 180 Climbing Dallas / Fort Worth TRACON
12:23PM 32.6833 -96.8000 180° South 238 274 12,000  Level Dallas / Fort Worth TRACON
12:24PM 32.6167 -96.8167 192° South 246 283 12,000  Level Dallas / Fort Worth TRACON
12:25PM 32.5500 -96.8333 192° South 231 266 12,000  Level Dallas / Fort Worth TRACON
12:26PM 32.5000 -96.8500 196° South 219 252 12,100  Climbing Dallas / Fort Worth TRACON
12:28PM 32.4308 -96.7692 135° Southeast  Level FlightAware Approximate
12:29PM 32.3414 -96.8742 135° Southeast 223 257 12,000  Level Houston Center
12:30PM 32.2817 -96.8661 173° South 215 247 12,000 240 Level Houston Center
12:30PM 32.2558 -96.8583 166° South 235 270 12,400 1,260 Climbing Fort Worth Center
12:31PM 32.1911 -96.8439 169° South 229 264 14,000 1,560 Climbing Fort Worth Center
12:32PM 32.1517 -96.8614 201° Southwest 163 188 15,600 1,500 Climbing Fort Worth Center
12:33PM 32.0953 -96.8567 176° South 184 212 17,000 1,500 Climbing Fort Worth Center
12:34PM 32.0344 -96.8375 165° South 219 252 18,600 1,440 Climbing Fort Worth Center
12:35PM 31.9761 -96.8206 166° South 225 259 19,900 1,200 Climbing Fort Worth Center
12:36PM 31.9133 -96.8064 169° South 231 266 21,000 540 Climbing Fort Worth Center
12:37PM 31.8403 -96.7825 164° South 253 291 21,000  Level Fort Worth Center
12:38PM 31.7564 -96.7561 165° South 292 336 21,000  Level Fort Worth Center
12:39PM 31.6728 -96.7322 166° South 308 354 21,000  Level Fort Worth Center
12:40PM 31.6017 -96.7144 168° South 310 357 21,000  Level Houston Center
12:41PM 31.5297 -96.7025 172° South 264 304 21,000  Level Houston Center
12:42PM 31.4589 -96.6803 165° South 259 298 21,000  Level Houston Center
12:43PM 31.3700 -96.6483 163° South 281 323 21,000  Level Houston Center
12:44PM 31.2894 -96.6250 166° South 293 337 21,000  Level Houston Center
12:45PM 31.2100 -96.6006 165° South 292 336 21,000  Level Houston Center
12:46PM 31.1286 -96.5764 166° South 295 339 21,000  Level Houston Center
12:47PM 31.0458 -96.5522 166° South 302 348 21,000  Level Houston Center
12:48PM 30.9611 -96.5258 165° South 308 354 21,000 -540 Level Houston Center
12:49PM 30.9022 -96.5089 166° South 301 346 20,100 -1,380 Descending Houston Center
12:49PM 30.8803 -96.5031 167° South 299 344 19,600 -1,500 Descending Houston Center
12:50PM 30.8314 -96.4900 167° South 265 305 18,600 -1,500 Descending Houston Center
12:50PM 30.8094 -96.4822 163° South 269 310 18,100 -1,500 Descending Houston Center
12:51PM 30.7669 -96.4703 166° South 228 262 17,100 -1,560 Descending Houston Center
12:51PM 30.7386 -96.4611 164° South 228 262 16,500 -900 Descending Houston Center
12:52PM 30.7067 -96.4525 167° South 210 242 16,200 -540 Descending Houston Center
12:52PM 30.6797 -96.4428 163° South 218 251 16,000 -660 Descending Houston Center
12:53PM 30.6378 -96.4311 167° South 224 258 15,500 -1,020 Descending Houston Center
12:53PM 30.6181 -96.4225 159° South 225 259 15,000 -1,320 Descending Houston Center
12:54PM 30.5753 -96.4114 167° South 238 274 14,200 -1,260 Descending Houston Center
12:54PM 30.5528 -96.3997 156° South 236 272 13,700 -1,200 Descending Houston Center
12:55PM 30.5081 -96.3847 164° South 246 283 13,000 -780 Descending Houston Center
12:56PM 30.4881 -96.3736 154° Southeast 242 278 12,900 -720 Descending Houston Center
12:56PM 30.4497 -96.3622 166° South 233 268 12,300 -960 Descending Houston Center
12:57PM 30.4289 -96.3506 154° Southeast 227 261 11,900 -1,320 Descending Houston Center
12:57PM 30.3842 -96.3333 162° South 239 275 11,000 -1,500 Descending Houston Center
12:58PM 30.3650 -96.3233 156° South 237 273 10,400 -1,320 Descending Houston Center
12:58PM 30.3300 -96.3128 165° South 215 247 9,800 -1,560 Descending Houston Center
12:59PM 30.2989 -96.3006 161° South 207 238 8,800 -1,320 Descending Houston Center
12:59PM 30.2781 -96.2942 165° South 191 220 8,500 -1,260 Descending Houston Center
01:00PM 30.2467 -96.2797 158° South 198 228 7,500 -1,320 Descending Houston Center
01:00PM 30.2217 -96.2717 164° South 213 245 7,200 -720 Descending Houston Center
01:01PM 30.1911 -96.2581 159° South 205 236 6,800 -240 Descending Houston Center
01:01PM 30.1697 -96.2508 164° South 198 228 7,000  Climbing Houston Center
01:02PM 30.1353 -96.2358 159° South 209 241 6,800 -600 Descending Houston Center
01:02PM 30.1161 -96.2133 135° Southeast 246 283 6,400 -1,020 Descending Houston Center
01:03PM 30.0983 -96.1803 122° Southeast 230 265 5,800 -1,140 Descending Houston Center
01:03PM 30.0772 -96.1503 129° Southeast 233 268 5,300 -1,080 Descending Houston Center
01:04PM 30.0583 -96.1200 126° Southeast 234 269 4,700 -840 Descending Houston Center
01:05PM 30.0108 -96.0511 129° Southeast 227 261 3,900 -420 Descending Houston Center
01:06PM 29.9783 -96.0025 128° Southeast 199 229 3,900  Level Houston Center
01:07PM 29.9442 -95.9514 128° Southeast 201 231 3,900 -480 Level Houston Center
01:08PM 29.9036 -95.8931 129° Southeast 228 262 3,000 -780 Descending Houston Center
01:08PM 29.8892 -95.8703 126° Southeast 228 262 2,900 -120 Descending Houston Center
01:09PM 29.8658 -95.8361 128° Southeast 226 260 2,900  Level Houston Center
01:10PM 29.8236 -95.7672 125° Southeast 191 220 2,900  Level Houston Center
01:11PM 29.8261 -95.7128 87° East 195 224 2,900 -540 Level Houston Center
01:12PM 29.7956 -95.6758 134° Southeast 194 223 1,900 -420 Descending Houston Center
01:13PM 29.7478 -95.6694 173° South 176 203 2,100 -180 Climbing Houston Center
01:14PM 29.7003 -95.6653 176° South 175 201 1,600 240 Descending Houston Center
01:15PM 29.6489 -95.6608 176° South 161 185 2,700 240 Climbing Houston Center
01:16PM 29.5983 -95.6553 175° South 174 200 2,100 -300 Descending Houston Center
01:17PM 29.5536 -95.6508 175° South 168 193 2,100  Level Houston Center
01:18PM 29.5000 -95.6464 176° South 160 184 2,100 420 Level Houston Center
01:19PM 29.4856 -95.6769 242° Southwest 190 219 3,000 960 Climbing Houston Center
01:20PM 29.5353 -95.7350 315° West 216 249 4,100 480 Climbing Houston Center
01:21PM 29.5856 -95.6897 38° Northeast 240 276 4,000  Descending Houston Center
01:22PM 29.6272 -95.6311 51° Northeast 238 274 4,100  Climbing Houston Center
01:23PM 29.6739 -95.5731 47° Northeast 230 265 4,000  Descending Houston Center
01:24PM 29.7219 -95.5239 42° Northeast 223 257 4,100 -300 Climbing Houston Center
01:26PM 29.7700 -95.4750 41° Northeast 225 259 3,400 -480 Descending Houston Center
01:27PM 29.8006 -95.4264 54° Northeast 223 257 3,100 -480 Descending Houston Center
01:28PM 29.7558 -95.4025 155° Southeast 171 197 2,500 -540 Descending Houston Center
01:29PM 29.7275 -95.3767 142° Southeast 130 150 2,100 -480 Descending Houston Center
01:30PM 29.6994 -95.3464 137° Southeast 130 150 1,600 -600 Descending Houston Center
01:31PM 29.6753 -95.3156 132° Southeast 132 152 900 -600 Descending Houston Center
01:32PM 29.6475 -95.2828 134° Southeast 131 151 300 -600 Descending Houston Center